Decoded Metar for KTXK (TEXARKANA in AR, USA) (IATA:TXK) | Meteo·Mobile Aviation Weather
aviador You're here:

KTXK Decoded Metar

TEXARKANA in AR, USA
Report Time2018-10-15 18:40:00
UTC Time2018-10-15 18:59:04
Flight Rules mvfr MVFR
Wind010° at 10 kt
W.Decomp.*RWY 04: 8.2 kt HW 5.7 kt LCW
RWY 31: 5.7 kt HW 8.2 kt RCW
W.Rank010° ranks 29
Current wind is above 010° avg. (6.7)
Visibility9999 m
Phenomena:N/A
Clouds:Overcast 013 Hf
Expected CloudBase > 800 ft AGL from Temp-Dew spread
Ceiling1,300 ft
Temp11°C (ISA -3)
Dew Point09°C (88% RH)
AAT7.2°C
QNH1023 hPa
Density Alt-210 ft
Elevation364 ft
Report Wrong Elevation
Raw Report
KTXK 151840Z 01010KT 10SM OVC013 11/09 A3022 RMK AO2 T01110089=

Extra information for KTXK:More info

Metar Taf Metar & Taf Last 4 Metars F.Rules Stats Wind Profile Meteogram Temp Stats Airport Information Weather charts Add Link Nearby VenuesMetar ALERT Operation Metar Decoded Social comments

AIRNAV info for KTXK